Time;durP1;ratioP1;P1;durP2;ratioP2;P2;SDS_P1;SDS_P2;PMS_P1;PMS_P2;Temp;Humidity;BMP_temperature;BMP_pressure;BME280_temperature;BME280_humidity;BME280_pressure;Samples;Min_cycle;Max_cycle;Signal;HPM_P1;HPM_P2
2023/04/29 00:01:26;;;;;;;;;;;;;;;;;;6217061;22;19923;-90
2023/04/29 00:03:52;;;;;;;;;;;;;;;;;;6239230;22;20358;-89
2023/04/29 00:06:18;;;;;;;;;;;;;;;;;;6213895;22;20799;-89
2023/04/29 00:08:44;;;;;;;;;;;;;;;;;;6215903;22;19985;-89
2023/04/29 00:11:10;;;;;;;;;;;;;;;;;;6215136;22;19919;-88
2023/04/29 00:13:38;;;;;;;;;;;;;;;;;;6218433;22;19919;-89
2023/04/29 00:16:04;;;;;;;;;;;;;;;;;;6240092;22;19990;-89
2023/04/29 00:18:31;;;;;;;;;;;;;;;;;;6216252;22;19951;-90
2023/04/29 00:20:57;;;;;;;;;;;;;;;;;;6243091;22;19923;-89
2023/04/29 00:23:23;;;;;;;;;;;;;;;;;;6215747;22;19999;-91
2023/04/29 00:25:50;;;;;;;;;;;;;;;;;;6216119;22;19916;-89
2023/04/29 00:28:16;;;;;;;;;;;;;;;;;;6214317;22;20279;-89
2023/04/29 00:30:42;;;;;;;;;;;;;;;;;;6241021;22;19921;-89
2023/04/29 00:33:08;;;;;;;;;;;;;;;;;;6238496;22;20343;-88
2023/04/29 00:35:34;;;;;;;;;;;;;;;;;;6215727;22;19988;-89
2023/04/29 00:38:00;;;;;;;;;;;;;;;;;;6212632;22;19930;-89
2023/04/29 00:40:26;;;;;;;;;;;;;;;;;;6238572;22;19980;-90
2023/04/29 00:42:52;;;;;;;;;;;;;;;;;;6216333;22;19927;-88
2023/04/29 00:45:18;;;;;;;;;;;;;;;;;;6239203;22;20143;-90
2023/04/29 00:47:44;;;;;;;;;;;;;;;;;;6239824;22;19953;-89
2023/04/29 00:50:10;;;;;;;;;;;;;;;;;;6213306;22;19930;-90
2023/04/29 00:52:36;;;;;;;;;;;;;;;;;;6238461;22;19923;-89
2023/04/29 00:55:02;;;;;;;;;;;;;;;;;;6210606;22;20018;-89
2023/04/29 00:57:29;;;;;;;;;;;;;;;;;;6211370;22;19930;-90
2023/04/29 00:59:55;;;;;;;;;;;;;;;;;;6238569;22;20004;-89
2023/04/29 01:02:20;;;;;;;;;;;;;;;;;;6211374;22;19924;-90
2023/04/29 01:04:46;;;;;;;;;;;;;;;;;;6211508;22;19926;-88
2023/04/29 01:07:12;;;;;;;;;;;;;;;;;;6210247;22;19934;-89
2023/04/29 01:09:38;;;;;;;;;;;;;;;;;;6238474;22;19954;-89
2023/04/29 01:12:05;;;;;;;;;;;;;;;;;;6236374;22;19919;-89
2023/04/29 01:14:31;;;;;;;;;;;;;;;;;;6239318;22;20274;-88
2023/04/29 01:16:57;;;;;;;;;;;;;;;;;;6239170;22;19919;-88
2023/04/29 01:19:23;;;;;;;;;;;;;;;;;;6211506;22;19927;-89
2023/04/29 01:21:49;;;;;;;;;;;;;;;;;;6238675;22;19926;-89
2023/04/29 01:24:15;;;;;;;;;;;;;;;;;;6236574;22;20378;-88
2023/04/29 01:26:41;;;;;;;;;;;;;;;;;;6238325;22;19919;-88
2023/04/29 01:29:07;;;;;;;;;;;;;;;;;;6212487;22;19926;-89
2023/04/29 01:31:33;;;;;;;;;;;;;;;;;;6242209;22;20332;-88
2023/04/29 01:33:59;;;;;;;;;;;;;;;;;;6242090;22;19938;-89
2023/04/29 01:36:25;;;;;;;;;;;;;;;;;;6216427;22;19973;-89
2023/04/29 01:38:51;;;;;;;;;;;;;;;;;;6216343;22;20308;-89
2023/04/29 01:41:17;;;;;;;;;;;;;;;;;;6216779;22;19945;-90
2023/04/29 01:43:43;;;;;;;;;;;;;;;;;;6230579;22;20324;-90
2023/04/29 01:46:10;;;;;;;;;;;;;;;;;;6251863;22;19923;-89
2023/04/29 01:48:36;;;;;;;;;;;;;;;;;;6253284;22;19958;-90
2023/04/29 01:51:04;;;;;;;;;;;;;;;;;;6250245;22;19990;-89
2023/04/29 01:53:30;;;;;;;;;;;;;;;;;;6224025;22;19954;-90
2023/04/29 01:55:56;;;;;;;;;;;;;;;;;;6225188;22;19923;-89
2023/04/29 01:58:22;;;;;;;;;;;;;;;;;;6248778;22;20001;-88
2023/04/29 02:00:48;;;;;;;;;;;;;;;;;;6240161;22;19919;-90
2023/04/29 02:03:15;;;;;;;;;;;;;;;;;;6213241;22;19925;-89
2023/04/29 02:05:41;;;;;;;;;;;;;;;;;;6214492;22;20321;-89
2023/04/29 02:08:07;;;;;;;;;;;;;;;;;;6213173;22;19923;-89
2023/04/29 02:10:33;;;;;;;;;;;;;;;;;;6215365;22;20018;-88
2023/04/29 02:13:00;;;;;;;;;;;;;;;;;;6239340;22;19976;-89
2023/04/29 02:15:26;;;;;;;;;;;;;;;;;;6214941;22;19919;-89
2023/04/29 02:17:53;;;;;;;;;;;;;;;;;;6214418;22;19992;-89
2023/04/29 02:20:19;;;;;;;;;;;;;;;;;;6212516;22;20873;-89
2023/04/29 02:22:45;;;;;;;;;;;;;;;;;;6239308;22;19915;-89
2023/04/29 02:25:11;;;;;;;;;;;;;;;;;;6213529;22;19986;-89
2023/04/29 02:27:37;;;;;;;;;;;;;;;;;;6241582;22;19919;-88
2023/04/29 02:30:03;;;;;;;;;;;;;;;;;;6237128;22;19977;-88
2023/04/29 02:32:29;;;;;;;;;;;;;;;;;;6213722;22;20002;-89
2023/04/29 02:34:55;;;;;;;;;;;;;;;;;;6214050;22;19957;-88
2023/04/29 02:37:21;;;;;;;;;;;;;;;;;;6232945;22;19919;-89
2023/04/29 02:39:47;;;;;;;;;;;;;;;;;;6211919;22;19966;-89
2023/04/29 02:42:13;;;;;;;;;;;;;;;;;;6235795;22;20420;-89
2023/04/29 02:44:40;;;;;;;;;;;;;;;;;;6211455;22;20484;-89
2023/04/29 02:47:06;;;;;;;;;;;;;;;;;;6209674;22;19921;-89
2023/04/29 02:49:32;;;;;;;;;;;;;;;;;;6214028;22;19966;-89
2023/04/29 02:52:01;;;;;;;;;;;;;;;;;;6236871;22;19927;-90
2023/04/29 02:54:27;;;;;;;;;;;;;;;;;;6210873;22;19919;-89
2023/04/29 02:56:53;;;;;;;;;;;;;;;;;;6211838;22;20401;-90
2023/04/29 02:59:19;;;;;;;;;;;;;;;;;;6235042;22;19942;-89
2023/04/29 03:01:46;;;;;;;;;;;;;;;;;;6237188;22;19919;-89
2023/04/29 03:04:12;;;;;;;;;;;;;;;;;;6235906;22;20351;-88
2023/04/29 03:06:38;;;;;;;;;;;;;;;;;;6236531;22;19926;-89
2023/04/29 03:09:04;;;;;;;;;;;;;;;;;;6234985;22;20542;-89
2023/04/29 03:11:30;;;;;;;;;;;;;;;;;;6238819;22;19923;-88
2023/04/29 03:13:56;;;;;;;;;;;;;;;;;;6238413;22;19919;-89
2023/04/29 03:16:23;;;;;;;;;;;;;;;;;;6234185;22;19950;-89
2023/04/29 03:18:49;;;;;;;;;;;;;;;;;;6213050;22;19923;-88
2023/04/29 03:21:15;;;;;;;;;;;;;;;;;;6209331;22;19924;-89
2023/04/29 03:23:41;;;;;;;;;;;;;;;;;;6211445;22;19941;-89
2023/04/29 03:26:07;;;;;;;;;;;;;;;;;;6206978;22;19990;-88
2023/04/29 03:28:33;;;;;;;;;;;;;;;;;;6236896;22;19950;-89
2023/04/29 03:30:59;;;;;;;;;;;;;;;;;;6209628;22;19920;-89
2023/04/29 03:33:25;;;;;;;;;;;;;;;;;;6237838;22;19919;-89
2023/04/29 03:35:51;;;;;;;;;;;;;;;;;;6210908;22;19922;-89
2023/04/29 03:38:17;;;;;;;;;;;;;;;;;;6211516;22;19926;-89
2023/04/29 03:40:44;;;;;;;;;;;;;;;;;;6239740;22;19922;-88
2023/04/29 03:43:11;;;;;;;;;;;;;;;;;;6213342;22;19923;-89
2023/04/29 03:45:37;;;;;;;;;;;;;;;;;;6241591;22;19924;-89
2023/04/29 03:48:03;;;;;;;;;;;;;;;;;;6213051;22;19927;-89
2023/04/29 03:50:29;;;;;;;;;;;;;;;;;;6215887;22;19919;-89
2023/04/29 03:52:54;;;;;;;;;;;;;;;;;;6217699;22;20327;-89
2023/04/29 03:55:20;;;;;;;;;;;;;;;;;;6238090;22;20599;-89
2023/04/29 03:57:46;;;;;;;;;;;;;;;;;;6240736;22;19927;-89
2023/04/29 04:00:12;;;;;;;;;;;;;;;;;;6238351;22;19990;-88
2023/04/29 04:02:38;;;;;;;;;;;;;;;;;;6216911;22;20524;-88
2023/04/29 04:05:04;;;;;;;;;;;;;;;;;;6239136;22;19925;-89
2023/04/29 04:07:30;;;;;;;;;;;;;;;;;;6218062;22;19972;-89
2023/04/29 04:09:56;;;;;;;;;;;;;;;;;;6243582;22;20639;-89
2023/04/29 04:12:22;;;;;;;;;;;;;;;;;;6241706;22;20253;-89
2023/04/29 04:14:48;;;;;;;;;;;;;;;;;;6241426;22;19923;-89
2023/04/29 04:17:14;;;;;;;;;;;;;;;;;;6238273;22;20005;-89
2023/04/29 04:19:40;;;;;;;;;;;;;;;;;;6240976;22;19919;-89
2023/04/29 04:22:06;;;;;;;;;;;;;;;;;;6214209;22;20267;-89
2023/04/29 04:24:32;;;;;;;;;;;;;;;;;;6216565;22;20283;-90
2023/04/29 04:26:58;;;;;;;;;;;;;;;;;;6215303;22;19919;-89
2023/04/29 04:29:24;;;;;;;;;;;;;;;;;;6215848;22;19915;-89
2023/04/29 04:31:50;;;;;;;;;;;;;;;;;;6240915;22;19923;-89
2023/04/29 04:34:16;;;;;;;;;;;;;;;;;;6211385;22;19919;-88
2023/04/29 04:36:42;;;;;;;;;;;;;;;;;;6238820;22;19926;-89
2023/04/29 04:39:08;;;;;;;;;;;;;;;;;;6237574;22;19919;-89
2023/04/29 04:41:34;;;;;;;;;;;;;;;;;;6215078;22;19915;-89
2023/04/29 04:44:01;;;;;;;;;;;;;;;;;;6237971;22;19942;-89
2023/04/29 04:46:27;;;;;;;;;;;;;;;;;;6215054;22;20000;-89
2023/04/29 04:48:53;;;;;;;;;;;;;;;;;;6214984;22;19919;-88
2023/04/29 04:51:19;;;;;;;;;;;;;;;;;;6236632;22;19919;-89
2023/04/29 04:53:45;;;;;;;;;;;;;;;;;;6215012;22;19919;-88
2023/04/29 04:56:11;;;;;;;;;;;;;;;;;;6238475;22;20166;-89
2023/04/29 04:58:37;;;;;;;;;;;;;;;;;;6215609;22;19915;-89
2023/04/29 05:01:03;;;;;;;;;;;;;;;;;;6237711;22;19968;-89
2023/04/29 05:03:29;;;;;;;;;;;;;;;;;;6213679;22;19922;-90
2023/04/29 05:05:55;;;;;;;;;;;;;;;;;;6213717;22;20533;-89
2023/04/29 05:08:21;;;;;;;;;;;;;;;;;;6211332;22;19926;-89
2023/04/29 05:10:47;;;;;;;;;;;;;;;;;;6239453;22;19923;-89
2023/04/29 05:13:13;;;;;;;;;;;;;;;;;;6237676;22;19923;-89
2023/04/29 05:15:39;;;;;;;;;;;;;;;;;;6239835;22;19915;-89
2023/04/29 05:18:05;;;;;;;;;;;;;;;;;;6239420;22;19919;-90
2023/04/29 05:20:31;;;;;;;;;;;;;;;;;;6239992;22;19950;-88
2023/04/29 05:22:57;;;;;;;;;;;;;;;;;;6241829;22;19926;-88
2023/04/29 05:25:23;;;;;;;;;;;;;;;;;;6240136;22;19990;-87
2023/04/29 05:27:50;;;;;;;;;;;;;;;;;;6216892;22;20244;-89
2023/04/29 05:30:17;;;;;;;;;;;;;;;;;;6213265;22;19915;-88
2023/04/29 05:32:44;;;;;;;;;;;;;;;;;;6211388;22;20340;-88
2023/04/29 05:35:10;;;;;;;;;;;;;;;;;;6238581;22;20724;-89
2023/04/29 05:37:36;;;;;;;;;;;;;;;;;;6238598;22;19919;-88
2023/04/29 05:40:03;;;;;;;;;;;;;;;;;;6214459;22;19919;-88
2023/04/29 05:42:28;;;;;;;;;;;;;;;;;;6215453;22;19994;-89
2023/04/29 05:44:54;;;;;;;;;;;;;;;;;;6216054;22;19957;-88
2023/04/29 05:47:21;;;;;;;;;;;;;;;;;;6212984;22;19945;-88
2023/04/29 05:49:47;;;;;;;;;;;;;;;;;;6214245;22;19919;-88
2023/04/29 05:52:12;;;;;;;;;;;;;;;;;;6239704;22;20408;-88
2023/04/29 05:54:38;;;;;;;;;;;;;;;;;;6214921;22;19942;-89
2023/04/29 05:57:04;;;;;;;;;;;;;;;;;;6238187;22;19930;-90
2023/04/29 05:59:31;;;;;;;;;;;;;;;;;;6212829;22;19996;-88
2023/04/29 06:01:59;;;;;;;;;;;;;;;;;;6212966;22;20275;-89
2023/04/29 06:04:26;;;;;;;;;;;;;;;;;;6236973;22;19915;-87
2023/04/29 06:06:53;;;;;;;;;;;;;;;;;;6214808;22;19920;-88
2023/04/29 06:09:20;;;;;;;;;;;;;;;;;;6209402;22;20343;-88
2023/04/29 06:11:48;;;;;;;;;;;;;;;;;;6240074;22;19927;-88
2023/04/29 06:14:15;;;;;;;;;;;;;;;;;;6211042;22;19923;-89
2023/04/29 06:16:42;;;;;;;;;;;;;;;;;;6238467;22;19925;-88
2023/04/29 06:19:09;;;;;;;;;;;;;;;;;;6235785;22;19922;-89
2023/04/29 06:21:37;;;;;;;;;;;;;;;;;;6238155;22;20324;-91
2023/04/29 06:24:04;;;;;;;;;;;;;;;;;;6211143;22;19934;-89
2023/04/29 06:26:31;;;;;;;;;;;;;;;;;;6212719;22;20070;-88
2023/04/29 06:29:01;;;;;;;;;;;;;;;;;;6213724;22;19919;-89
2023/04/29 06:31:28;;;;;;;;;;;;;;;;;;6212667;22;19919;-89
2023/04/29 06:33:55;;;;;;;;;;;;;;;;;;6212921;22;19920;-90
2023/04/29 06:36:22;;;;;;;;;;;;;;;;;;6211007;22;19919;-89
2023/04/29 06:38:50;;;;;;;;;;;;;;;;;;6214903;22;20340;-90
2023/04/29 06:41:17;;;;;;;;;;;;;;;;;;6209990;22;19950;-89
2023/04/29 06:43:44;;;;;;;;;;;;;;;;;;6212103;22;19927;-89
2023/04/29 06:46:12;;;;;;;;;;;;;;;;;;6213906;22;19923;-89
2023/04/29 06:48:39;;;;;;;;;;;;;;;;;;6214522;22;19925;-89
2023/04/29 06:51:11;;;;;;;;;;;;;;;;;;6239408;22;19973;-90
2023/04/29 06:53:38;;;;;;;;;;;;;;;;;;6241034;22;20292;-90
2023/04/29 06:56:05;;;;;;;;;;;;;;;;;;6212486;22;19930;-89
2023/04/29 06:58:35;;;;;;;;;;;;;;;;;;6239779;22;19923;-89
2023/04/29 07:01:03;;;;;;;;;;;;;;;;;;6212465;22;19990;-89
2023/04/29 07:03:31;;;;;;;;;;;;;;;;;;6214462;22;19919;-89
2023/04/29 07:05:58;;;;;;;;;;;;;;;;;;6214279;22;19953;-89
2023/04/29 07:08:28;;;;;;;;;;;;;;;;;;6239206;22;20291;-89
2023/04/29 07:10:55;;;;;;;;;;;;;;;;;;6239297;22;19915;-89
2023/04/29 07:13:23;;;;;;;;;;;;;;;;;;6235884;22;19930;-89
2023/04/29 07:15:50;;;;;;;;;;;;;;;;;;6213822;22;19969;-89
2023/04/29 07:18:17;;;;;;;;;;;;;;;;;;6234237;22;19938;-90
2023/04/29 07:20:46;;;;;;;;;;;;;;;;;;6212202;22;19919;-89
2023/04/29 07:23:13;;;;;;;;;;;;;;;;;;6209745;22;20038;-88
2023/04/29 07:25:40;;;;;;;;;;;;;;;;;;6211475;22;20339;-90
2023/04/29 07:28:08;;;;;;;;;;;;;;;;;;6211710;22;20317;-90
2023/04/29 07:30:36;;;;;;;;;;;;;;;;;;6237724;22;19954;-90
2023/04/29 07:33:03;;;;;;;;;;;;;;;;;;6235986;22;19923;-89
2023/04/29 07:35:30;;;;;;;;;;;;;;;;;;6214299;22;19919;-89
2023/04/29 07:37:57;;;;;;;;;;;;;;;;;;6241841;22;19986;-90
2023/04/29 07:40:25;;;;;;;;;;;;;;;;;;6215081;22;19942;-88
2023/04/29 07:42:52;;;;;;;;;;;;;;;;;;6238735;22;19919;-89
2023/04/29 07:45:19;;;;;;;;;;;;;;;;;;6236867;22;19965;-88
2023/04/29 07:47:46;;;;;;;;;;;;;;;;;;6239121;22;20725;-89
2023/04/29 07:50:14;;;;;;;;;;;;;;;;;;6213435;22;19958;-90
2023/04/29 07:52:42;;;;;;;;;;;;;;;;;;6242296;22;19953;-89
2023/04/29 07:55:09;;;;;;;;;;;;;;;;;;6240475;22;20647;-89
2023/04/29 07:57:37;;;;;;;;;;;;;;;;;;6242392;22;19976;-88
2023/04/29 08:00:04;;;;;;;;;;;;;;;;;;6213747;22;20260;-93
2023/04/29 08:02:32;;;;;;;;;;;;;;;;;;6218031;22;19958;-90
2023/04/29 08:04:59;;;;;;;;;;;;;;;;;;6216959;22;19927;-90
2023/04/29 08:07:27;;;;;;;;;;;;;;;;;;6216804;22;19965;-90
2023/04/29 08:09:54;;;;;;;;;;;;;;;;;;6216777;22;19919;-90
2023/04/29 08:12:22;;;;;;;;;;;;;;;;;;6239098;22;19985;-90
2023/04/29 08:14:49;;;;;;;;;;;;;;;;;;6216567;22;19955;-91
2023/04/29 08:17:22;;;;;;;;;;;;;;;;;;6240848;22;19927;-89
2023/04/29 08:19:50;;;;;;;;;;;;;;;;;;6217347;22;19926;-88
2023/04/29 08:22:17;;;;;;;;;;;;;;;;;;6213519;22;20378;-89
2023/04/29 08:24:44;;;;;;;;;;;;;;;;;;6217652;22;19919;-89
2023/04/29 08:27:12;;;;;;;;;;;;;;;;;;6239397;22;19942;-89
2023/04/29 08:29:43;;;;;;;;;;;;;;;;;;6242512;22;19916;-89
2023/04/29 08:32:10;;;;;;;;;;;;;;;;;;6212521;22;19923;-89
2023/04/29 08:34:38;;;;;;;;;;;;;;;;;;6216562;22;20487;-90
2023/04/29 08:37:05;;;;;;;;;;;;;;;;;;6238413;22;19923;-89
2023/04/29 08:39:33;;;;;;;;;;;;;;;;;;6239678;22;19965;-88
2023/04/29 08:42:01;;;;;;;;;;;;;;;;;;6238827;22;19950;-89
2023/04/29 08:44:30;;;;;;;;;;;;;;;;;;6239803;22;20347;-90
2023/04/29 08:46:57;;;;;;;;;;;;;;;;;;6217097;22;20400;-90
2023/04/29 08:49:25;;;;;;;;;;;;;;;;;;6212410;22;19919;-90
2023/04/29 08:51:52;;;;;;;;;;;;;;;;;;6214377;22;19929;-90
2023/04/29 08:54:19;;;;;;;;;;;;;;;;;;6240404;22;19938;-90
2023/04/29 08:56:48;;;;;;;;;;;;;;;;;;6216819;22;19926;-89
2023/04/29 08:59:15;;;;;;;;;;;;;;;;;;6214601;22;19978;-89
2023/04/29 09:01:43;;;;;;;;;;;;;;;;;;6215831;22;19986;-90
2023/04/29 09:04:10;;;;;;;;;;;;;;;;;;6238785;22;19925;-89
2023/04/29 09:06:38;;;;;;;;;;;;;;;;;;6212004;22;20515;-89
2023/04/29 09:09:05;;;;;;;;;;;;;;;;;;6239715;22;19964;-89
2023/04/29 09:11:33;;;;;;;;;;;;;;;;;;6216182;22;19989;-89
2023/04/29 09:14:03;;;;;;;;;;;;;;;;;;6240416;22;19920;-91
2023/04/29 09:16:30;;;;;;;;;;;;;;;;;;6217485;22;19926;-90
2023/04/29 09:18:58;;;;;;;;;;;;;;;;;;6216961;22;19919;-90
2023/04/29 09:21:26;;;;;;;;;;;;;;;;;;6214988;22;19947;-89
2023/04/29 09:23:53;;;;;;;;;;;;;;;;;;6218445;22;19926;-88
2023/04/29 09:26:21;;;;;;;;;;;;;;;;;;6239500;22;19919;-90
2023/04/29 09:28:48;;;;;;;;;;;;;;;;;;6218871;22;20005;-90
2023/04/29 09:31:15;;;;;;;;;;;;;;;;;;6239949;22;20363;-90
2023/04/29 09:33:43;;;;;;;;;;;;;;;;;;6218955;22;20045;-91
2023/04/29 09:36:09;;;;;;;;;;;;;;;;;;6242499;22;20229;-89
2023/04/29 09:38:35;;;;;;;;;;;;;;;;;;6219783;22;19996;-90
2023/04/29 09:41:01;;;;;;;;;;;;;;;;;;6217195;22;20256;-90
2023/04/29 09:43:27;;;;;;;;;;;;;;;;;;6219430;22;19916;-89
2023/04/29 09:45:53;;;;;;;;;;;;;;;;;;6242734;22;20286;-91
2023/04/29 09:48:19;;;;;;;;;;;;;;;;;;6216777;22;19977;-90
2023/04/29 09:50:45;;;;;;;;;;;;;;;;;;6244633;22;19919;-90
2023/04/29 09:53:11;;;;;;;;;;;;;;;;;;6215793;22;20332;-90
2023/04/29 09:55:37;;;;;;;;;;;;;;;;;;6219073;22;19922;-91
2023/04/29 09:58:04;;;;;;;;;;;;;;;;;;6216416;22;19923;-90
2023/04/29 10:00:30;;;;;;;;;;;;;;;;;;6243239;22;19919;-89
2023/04/29 10:02:56;;;;;;;;;;;;;;;;;;6243002;22;19919;-92
2023/04/29 10:05:22;;;;;;;;;;;;;;;;;;6216205;22;19919;-90
2023/04/29 10:07:49;;;;;;;;;;;;;;;;;;6241787;22;19922;-92
2023/04/29 10:10:16;;;;;;;;;;;;;;;;;;6239960;22;19915;-91
2023/04/29 10:12:42;;;;;;;;;;;;;;;;;;6216341;22;19923;-90
2023/04/29 10:15:07;;;;;;;;;;;;;;;;;;6240262;22;19919;-90
2023/04/29 10:17:33;;;;;;;;;;;;;;;;;;6239009;22;20449;-91
2023/04/29 10:19:59;;;;;;;;;;;;;;;;;;6214110;22;19923;-90
2023/04/29 10:22:26;;;;;;;;;;;;;;;;;;6216368;22;19919;-91
2023/04/29 10:24:53;;;;;;;;;;;;;;;;;;6215911;22;19919;-91
2023/04/29 10:27:19;;;;;;;;;;;;;;;;;;6240966;22;19923;-90
2023/04/29 10:29:45;;;;;;;;;;;;;;;;;;6243054;22;19957;-90
2023/04/29 10:32:11;;;;;;;;;;;;;;;;;;6214918;22;20025;-90
2023/04/29 10:34:40;;;;;;;;;;;;;;;;;;6243055;22;19915;-90
2023/04/29 10:37:06;;;;;;;;;;;;;;;;;;6214397;22;19916;-90
2023/04/29 10:39:32;;;;;;;;;;;;;;;;;;6241562;22;20405;-89
2023/04/29 10:41:58;;;;;;;;;;;;;;;;;;6216986;22;19919;-90
2023/04/29 10:44:24;;;;;;;;;;;;;;;;;;6215398;22;19994;-90
2023/04/29 10:46:50;;;;;;;;;;;;;;;;;;6216724;22;19919;-90
2023/04/29 10:49:16;;;;;;;;;;;;;;;;;;6215507;22;19919;-91
2023/04/29 10:51:42;;;;;;;;;;;;;;;;;;6241961;22;20320;-90
2023/04/29 10:54:09;;;;;;;;;;;;;;;;;;6239783;22;19915;-90
2023/04/29 10:56:36;;;;;;;;;;;;;;;;;;6216403;22;19919;-90
2023/04/29 10:59:02;;;;;;;;;;;;;;;;;;6213382;22;19923;-90
2023/04/29 11:01:28;;;;;;;;;;;;;;;;;;6241738;22;19919;-89
2023/04/29 11:03:57;;;;;;;;;;;;;;;;;;6240534;22;19994;-90
2023/04/29 11:06:23;;;;;;;;;;;;;;;;;;6213408;22;19915;-89
2023/04/29 11:08:49;;;;;;;;;;;;;;;;;;6240710;22;20185;-91
2023/04/29 11:11:15;;;;;;;;;;;;;;;;;;6212952;22;19990;-90
2023/04/29 11:13:41;;;;;;;;;;;;;;;;;;6217028;22;19930;-89
2023/04/29 11:16:07;;;;;;;;;;;;;;;;;;6238415;22;20279;-91
2023/04/29 11:18:33;;;;;;;;;;;;;;;;;;6215888;22;19990;-91
2023/04/29 11:20:59;;;;;;;;;;;;;;;;;;6240572;22;20697;-90
2023/04/29 11:23:26;;;;;;;;;;;;;;;;;;6216161;22;19986;-90
2023/04/29 11:25:52;;;;;;;;;;;;;;;;;;6239556;22;20325;-91
2023/04/29 11:28:18;;;;;;;;;;;;;;;;;;6213783;22;19977;-91
2023/04/29 11:30:43;;;;;;;;;;;;;;;;;;6216233;22;19973;-90
2023/04/29 11:33:09;;;;;;;;;;;;;;;;;;6240558;22;20376;-90
2023/04/29 11:35:35;;;;;;;;;;;;;;;;;;6216219;22;19973;-91
2023/04/29 11:38:02;;;;;;;;;;;;;;;;;;6215437;22;19920;-89
2023/04/29 11:40:28;;;;;;;;;;;;;;;;;;6217327;22;20248;-90
2023/04/29 11:42:54;;;;;;;;;;;;;;;;;;6216713;22;19922;-90
2023/04/29 11:45:20;;;;;;;;;;;;;;;;;;6238579;22;19981;-90
2023/04/29 11:47:47;;;;;;;;;;;;;;;;;;6242271;22;19922;-90
2023/04/29 11:50:15;;;;;;;;;;;;;;;;;;6214887;22;20319;-90
2023/04/29 11:52:41;;;;;;;;;;;;;;;;;;6214159;22;20320;-90
2023/04/29 11:55:07;;;;;;;;;;;;;;;;;;6215723;22;20320;-89
2023/04/29 11:57:33;;;;;;;;;;;;;;;;;;6215227;22;20806;-90
2023/04/29 11:59:59;;;;;;;;;;;;;;;;;;6239653;22;20457;-90
2023/04/29 12:02:25;;;;;;;;;;;;;;;;;;6241600;22;19919;-90
2023/04/29 12:04:51;;;;;;;;;;;;;;;;;;6242109;22;19922;-90
2023/04/29 12:07:17;;;;;;;;;;;;;;;;;;6211712;22;19954;-90
2023/04/29 12:09:43;;;;;;;;;;;;;;;;;;6215845;22;19922;-90
2023/04/29 12:12:12;;;;;;;;;;;;;;;;;;6238192;22;19946;-90
2023/04/29 12:14:38;;;;;;;;;;;;;;;;;;6214473;22;20343;-91
2023/04/29 12:17:04;;;;;;;;;;;;;;;;;;6212233;22;19915;-91
2023/04/29 12:19:30;;;;;;;;;;;;;;;;;;6241371;22;19926;-91
2023/04/29 12:21:56;;;;;;;;;;;;;;;;;;6215624;22;19919;-91
2023/04/29 12:24:22;;;;;;;;;;;;;;;;;;6239294;22;20328;-91
2023/04/29 12:26:48;;;;;;;;;;;;;;;;;;6243286;22;19980;-89
2023/04/29 12:29:14;;;;;;;;;;;;;;;;;;6217965;22;19955;-91
2023/04/29 12:31:40;;;;;;;;;;;;;;;;;;6245953;22;19923;-92
2023/04/29 12:34:06;;;;;;;;;;;;;;;;;;6243523;22;19922;-91
2023/04/29 12:36:33;;;;;;;;;;;;;;;;;;6221051;22;19919;-90
2023/04/29 12:39:00;;;;;;;;;;;;;;;;;;6217487;22;19919;-90
2023/04/29 12:41:26;;;;;;;;;;;;;;;;;;6214371;22;19999;-91
2023/04/29 12:43:52;;;;;;;;;;;;;;;;;;6240341;22;20296;-92
2023/04/29 12:49:20;;;;;;;;;;;;;;;;;;;;;
2023/04/29 12:52:09;;;;;;;;;;;;;;;;;;6244305;22;19965;-90
2023/04/29 12:54:45;;;;;;;;;;;;;;;;;;6273997;22;19916;-90
2023/04/29 12:57:25;;;;;;;;;;;;;;;;;;6240969;22;19958;-91
2023/04/29 13:00:19;;;;;;;;;;;;;;;;;;;;;
2023/04/29 13:06:07;;;;;;;;;;;;;;;;;;6197811;23;19958;-91
2023/04/29 13:21:12;;;;;;;;;;;;;;;;;;6133766;23;19916;-90
2023/04/29 13:36:46;;;;;;;;;;;;;;;;;;;;;
2023/04/29 14:42:52;;;;;;;;;;;;;;;;;;6289451;22;19941;-83
2023/04/29 14:45:18;;;;;;;;;;;;;;;;;;6289226;22;20008;-83
2023/04/29 14:47:53;;;;;;;;;;;;;;;;;;6268361;22;19965;-83
2023/04/29 14:50:21;;;;;;;;;;;;;;;;;;6267249;22;20314;-83
2023/04/29 14:52:53;;;;;;;;;;;;;;;;;;6268194;22;19923;-83
2023/04/29 14:55:19;;;;;;;;;;;;;;;;;;6264559;22;20195;-83
2023/04/29 14:57:48;;;;;;;;;;;;;;;;;;6265664;22;19950;-83
2023/04/29 15:00:14;;;;;;;;;;;;;;;;;;6291691;22;19944;-83
2023/04/29 15:02:49;;;;;;;;;;;;;;;;;;6269754;22;20415;-83
2023/04/29 15:05:16;;;;;;;;;;;;;;;;;;6264469;22;19918;-83
2023/04/29 15:07:42;;;;;;;;;;;;;;;;;;6292682;22;19922;-83
2023/04/29 15:10:11;;;;;;;;;;;;;;;;;;6265534;22;19923;-83
2023/04/29 15:12:37;;;;;;;;;;;;;;;;;;6266475;22;19918;-83
2023/04/29 15:15:05;;;;;;;;;;;;;;;;;;6265842;22;20036;-83
2023/04/29 15:17:31;;;;;;;;;;;;;;;;;;6267912;22;19985;-83
2023/04/29 15:19:57;;;;;;;;;;;;;;;;;;6293197;22;19950;-83
2023/04/29 15:22:24;;;;;;;;;;;;;;;;;;6262839;22;19980;-84
2023/04/29 15:28:03;;;;;;;;;;;;;;;;;;6261222;22;19930;-84
2023/04/29 15:30:29;;;;;;;;;;;;;;;;;;6261530;22;20354;-84
2023/04/29 15:33:01;;;;;;;;;;;;;;;;;;6261956;22;19958;-83
2023/04/29 15:35:27;;;;;;;;;;;;;;;;;;6262702;22;19926;-83
2023/04/29 15:37:56;;;;;;;;;;;;;;;;;;6263176;22;20342;-83
2023/04/29 15:40:24;;;;;;;;;;;;;;;;;;6261101;22;19919;-84
2023/04/29 15:42:50;;;;;;;;;;;;;;;;;;6262785;22;19934;-83
2023/04/29 15:45:16;;;;;;;;;;;;;;;;;;6258770;22;19919;-83
2023/04/29 15:47:42;;;;;;;;;;;;;;;;;;6288417;22;19927;-83
2023/04/29 15:50:09;;;;;;;;;;;;;;;;;;6259467;22;19922;-83
2023/04/29 15:52:35;;;;;;;;;;;;;;;;;;6287890;22;19962;-83
2023/04/29 15:55:04;;;;;;;;;;;;;;;;;;6260270;22;19949;-83
2023/04/29 15:57:31;;;;;;;;;;;;;;;;;;6263333;22;20061;-83
2023/04/29 15:59:59;;;;;;;;;;;;;;;;;;6290022;22;19964;-83
2023/04/29 16:02:25;;;;;;;;;;;;;;;;;;6263315;22;20311;-83
2023/04/29 16:05:00;;;;;;;;;;;;;;;;;;6267628;22;19922;-83
2023/04/29 16:07:26;;;;;;;;;;;;;;;;;;6266279;22;19926;-83
2023/04/29 16:09:55;;;;;;;;;;;;;;;;;;6262967;22;19923;-83
2023/04/29 16:12:21;;;;;;;;;;;;;;;;;;6265224;22;19970;-83
2023/04/29 16:14:52;;;;;;;;;;;;;;;;;;6266017;22;19925;-83
2023/04/29 16:17:18;;;;;;;;;;;;;;;;;;6263517;22;19947;-83
2023/04/29 16:19:50;;;;;;;;;;;;;;;;;;6288458;22;20297;-84
2023/04/29 16:22:26;;;;;;;;;;;;;;;;;;6292195;22;20350;-83
2023/04/29 16:24:52;;;;;;;;;;;;;;;;;;6292836;22;19969;-83
2023/04/29 16:27:18;;;;;;;;;;;;;;;;;;6290355;22;20256;-83
2023/04/29 16:29:54;;;;;;;;;;;;;;;;;;6267485;22;19918;-83
2023/04/29 16:32:23;;;;;;;;;;;;;;;;;;6292616;22;20327;-83
2023/04/29 16:34:51;;;;;;;;;;;;;;;;;;6269671;22;19919;-83
2023/04/29 16:37:17;;;;;;;;;;;;;;;;;;6265831;22;19918;-83
2023/04/29 16:39:46;;;;;;;;;;;;;;;;;;6293063;22;20335;-83
2023/04/29 16:42:12;;;;;;;;;;;;;;;;;;6263184;22;19930;-83
2023/04/29 16:44:47;;;;;;;;;;;;;;;;;;6292897;22;19976;-83
2023/04/29 16:47:19;;;;;;;;;;;;;;;;;;6263614;22;20342;-83
2023/04/29 16:49:45;;;;;;;;;;;;;;;;;;6290132;22;19929;-83
2023/04/29 16:52:11;;;;;;;;;;;;;;;;;;6288039;22;19922;-83
2023/04/29 16:54:37;;;;;;;;;;;;;;;;;;6265084;22;19981;-83
2023/04/29 16:57:05;;;;;;;;;;;;;;;;;;6262374;22;19919;-83
2023/04/29 16:59:31;;;;;;;;;;;;;;;;;;6291330;22;19988;-83
2023/04/29 17:01:58;;;;;;;;;;;;;;;;;;6266263;22;19918;-83
2023/04/29 17:04:24;;;;;;;;;;;;;;;;;;6288345;22;19946;-83
2023/04/29 17:06:50;;;;;;;;;;;;;;;;;;6269077;22;20335;-83
2023/04/29 17:09:16;;;;;;;;;;;;;;;;;;6265943;22;19919;-84
2023/04/29 17:11:49;;;;;;;;;;;;;;;;;;6291612;22;19919;-83
2023/04/29 17:14:23;;;;;;;;;;;;;;;;;;6265232;22;19993;-84
2023/04/29 17:17:00;;;;;;;;;;;;;;;;;;6264385;22;20407;-84
2023/04/29 17:19:26;;;;;;;;;;;;;;;;;;6262370;22;19919;-84
2023/04/29 17:21:55;;;;;;;;;;;;;;;;;;6264248;22;20298;-83
2023/04/29 17:24:24;;;;;;;;;;;;;;;;;;6262933;22;19944;-83
2023/04/29 17:26:50;;;;;;;;;;;;;;;;;;6265104;22;19965;-83
2023/04/29 17:29:19;;;;;;;;;;;;;;;;;;6287329;22;19989;-83
2023/04/29 17:32:27;;;;;;;;;;;;;;;;;;6263704;22;19942;-83
2023/04/29 17:34:40;;;;;;;;;;;;;;;;;;6281215;22;20336;-83
2023/04/29 17:37:06;;;;;;;;;;;;;;;;;;6288191;22;20036;-83
2023/04/29 17:39:35;;;;;;;;;;;;;;;;;;6266060;22;19923;-83
2023/04/29 17:42:01;;;;;;;;;;;;;;;;;;6258567;22;20331;-83
2023/04/29 17:44:27;;;;;;;;;;;;;;;;;;6266845;22;19925;-83
2023/04/29 17:46:53;;;;;;;;;;;;;;;;;;6261661;22;19919;-84
2023/04/29 17:49:24;;;;;;;;;;;;;;;;;;6261434;22;20046;-84
2023/04/29 17:51:51;;;;;;;;;;;;;;;;;;6230319;22;20040;-84
2023/04/29 17:54:19;;;;;;;;;;;;;;;;;;6203336;22;19922;-84
2023/04/29 17:56:57;;;;;;;;;;;;;;;;;;6207968;22;19919;-83
2023/04/29 17:59:24;;;;;;;;;;;;;;;;;;6229459;22;20198;-84
2023/04/29 18:01:50;;;;;;;;;;;;;;;;;;6232117;22;19916;-85
2023/04/29 18:23:09;;;;;;;;;;;;;;;;;;6181665;23;20460;-83
2023/04/29 18:25:56;;;;;;;;;;;;;;;;;;6164308;23;19920;-83
2023/04/29 18:35:02;;;;;;;;;;;;;;;;;;6141987;23;19924;-83
2023/04/29 18:37:32;;;;;;;;;;;;;;;;;;6263775;22;19962;-83
2023/04/29 18:40:00;;;;;;;;;;;;;;;;;;6227701;22;20086;-83
2023/04/29 18:42:33;;;;;;;;;;;;;;;;;;6235118;22;19929;-83
2023/04/29 18:54:24;;;;;;;;;;;;;;;;;;6144449;23;19931;-83
2023/04/29 18:56:53;;;;;;;;;;;;;;;;;;6142245;23;20353;-83
2023/04/29 18:59:44;;;;;;;;;;;;;;;;;;;;;
2023/04/29 19:02:31;;;;;;;;;;;;;;;;;;6145163;23;20310;-83